sensor_id;sensor_type;location;lat;lon;timestamp;P1;durP1;ratioP1;P2;durP2;ratioP2
80104;SDS011;69410;47.648;19.030;2023-04-25T00:00:21;3.50;;;3.50;;
80104;SDS011;69410;47.648;19.030;2023-04-25T00:00:52;3.17;;;3.17;;
80104;SDS011;69410;47.648;19.030;2023-04-25T00:01:24;2.80;;;2.80;;
80104;SDS011;69410;47.648;19.030;2023-04-25T00:01:55;2.90;;;2.90;;
80104;SDS011;69410;47.648;19.030;2023-04-25T00:02:26;2.77;;;2.77;;
80104;SDS011;69410;47.648;19.030;2023-04-25T00:02:57;2.73;;;2.73;;
80104;SDS011;69410;47.648;19.030;2023-04-25T00:03:27;2.73;;;2.73;;
80104;SDS011;69410;47.648;19.030;2023-04-25T00:03:58;2.83;;;2.83;;
80104;SDS011;69410;47.648;19.030;2023-04-25T00:04:29;3.20;;;3.20;;
80104;SDS011;69410;47.648;19.030;2023-04-25T00:05:00;3.17;;;3.17;;
80104;SDS011;69410;47.648;19.030;2023-04-25T00:05:30;2.87;;;2.87;;
80104;SDS011;69410;47.648;19.030;2023-04-25T00:06:01;2.97;;;2.97;;
80104;SDS011;69410;47.648;19.030;2023-04-25T00:06:32;3.00;;;3.00;;
80104;SDS011;69410;47.648;19.030;2023-04-25T00:07:04;3.00;;;3.00;;
80104;SDS011;69410;47.648;19.030;2023-04-25T00:07:35;3.10;;;3.10;;
80104;SDS011;69410;47.648;19.030;2023-04-25T00:08:06;3.07;;;3.07;;
80104;SDS011;69410;47.648;19.030;2023-04-25T00:08:37;2.83;;;2.83;;
80104;SDS011;69410;47.648;19.030;2023-04-25T00:09:08;3.10;;;3.10;;
80104;SDS011;69410;47.648;19.030;2023-04-25T00:09:39;3.10;;;3.10;;
80104;SDS011;69410;47.648;19.030;2023-04-25T00:10:10;3.23;;;3.23;;
80104;SDS011;69410;47.648;19.030;2023-04-25T00:10:40;2.87;;;2.87;;
80104;SDS011;69410;47.648;19.030;2023-04-25T00:11:11;3.27;;;3.27;;
80104;SDS011;69410;47.648;19.030;2023-04-25T00:11:42;3.37;;;3.37;;
80104;SDS011;69410;47.648;19.030;2023-04-25T00:12:13;3.00;;;3.00;;
80104;SDS011;69410;47.648;19.030;2023-04-25T00:12:44;3.33;;;3.33;;
80104;SDS011;69410;47.648;19.030;2023-04-25T00:13:14;3.17;;;3.17;;
80104;SDS011;69410;47.648;19.030;2023-04-25T00:13:45;2.97;;;2.97;;
80104;SDS011;69410;47.648;19.030;2023-04-25T00:14:16;2.80;;;2.80;;
80104;SDS011;69410;47.648;19.030;2023-04-25T00:14:47;2.93;;;2.93;;
80104;SDS011;69410;47.648;19.030;2023-04-25T00:15:17;3.20;;;3.20;;
80104;SDS011;69410;47.648;19.030;2023-04-25T00:15:48;3.27;;;3.27;;
80104;SDS011;69410;47.648;19.030;2023-04-25T00:16:19;3.20;;;3.20;;
80104;SDS011;69410;47.648;19.030;2023-04-25T00:16:51;2.90;;;2.90;;
80104;SDS011;69410;47.648;19.030;2023-04-25T00:17:22;2.70;;;2.70;;
80104;SDS011;69410;47.648;19.030;2023-04-25T00:17:52;3.07;;;3.07;;
80104;SDS011;69410;47.648;19.030;2023-04-25T00:18:23;2.77;;;2.77;;
80104;SDS011;69410;47.648;19.030;2023-04-25T00:18:54;2.57;;;2.57;;
80104;SDS011;69410;47.648;19.030;2023-04-25T00:19:25;2.87;;;2.87;;
80104;SDS011;69410;47.648;19.030;2023-04-25T00:19:56;2.83;;;2.83;;
80104;SDS011;69410;47.648;19.030;2023-04-25T00:20:27;2.67;;;2.67;;
80104;SDS011;69410;47.648;19.030;2023-04-25T00:20:58;2.50;;;2.50;;
80104;SDS011;69410;47.648;19.030;2023-04-25T00:21:29;2.67;;;2.67;;
80104;SDS011;69410;47.648;19.030;2023-04-25T00:22:00;2.70;;;2.70;;
80104;SDS011;69410;47.648;19.030;2023-04-25T00:22:32;2.83;;;2.83;;
80104;SDS011;69410;47.648;19.030;2023-04-25T00:23:03;2.77;;;2.77;;
80104;SDS011;69410;47.648;19.030;2023-04-25T00:23:34;3.00;;;3.00;;
80104;SDS011;69410;47.648;19.030;2023-04-25T00:24:05;2.87;;;2.87;;
80104;SDS011;69410;47.648;19.030;2023-04-25T00:24:36;3.03;;;3.03;;
80104;SDS011;69410;47.648;19.030;2023-04-25T00:25:07;2.87;;;2.87;;
80104;SDS011;69410;47.648;19.030;2023-04-25T00:25:38;2.60;;;2.60;;
80104;SDS011;69410;47.648;19.030;2023-04-25T00:26:09;2.77;;;2.77;;
80104;SDS011;69410;47.648;19.030;2023-04-25T00:26:39;2.70;;;2.70;;
80104;SDS011;69410;47.648;19.030;2023-04-25T00:27:10;2.97;;;2.97;;
80104;SDS011;69410;47.648;19.030;2023-04-25T00:27:41;3.00;;;3.00;;
80104;SDS011;69410;47.648;19.030;2023-04-25T00:28:12;2.93;;;2.93;;
80104;SDS011;69410;47.648;19.030;2023-04-25T00:28:43;2.63;;;2.63;;
80104;SDS011;69410;47.648;19.030;2023-04-25T00:29:14;2.73;;;2.73;;
80104;SDS011;69410;47.648;19.030;2023-04-25T00:29:44;2.97;;;2.97;;
80104;SDS011;69410;47.648;19.030;2023-04-25T00:30:15;3.00;;;3.00;;
80104;SDS011;69410;47.648;19.030;2023-04-25T00:30:46;2.87;;;2.87;;
80104;SDS011;69410;47.648;19.030;2023-04-25T00:31:17;2.73;;;2.73;;
80104;SDS011;69410;47.648;19.030;2023-04-25T00:31:47;2.63;;;2.63;;
80104;SDS011;69410;47.648;19.030;2023-04-25T00:32:20;2.73;;;2.73;;
80104;SDS011;69410;47.648;19.030;2023-04-25T00:32:50;2.80;;;2.80;;
80104;SDS011;69410;47.648;19.030;2023-04-25T00:33:21;2.57;;;2.57;;
80104;SDS011;69410;47.648;19.030;2023-04-25T00:33:52;3.07;;;3.07;;
80104;SDS011;69410;47.648;19.030;2023-04-25T00:34:22;3.13;;;3.13;;
80104;SDS011;69410;47.648;19.030;2023-04-25T00:34:54;3.47;;;3.47;;
80104;SDS011;69410;47.648;19.030;2023-04-25T00:35:25;3.03;;;3.03;;
80104;SDS011;69410;47.648;19.030;2023-04-25T00:35:55;2.53;;;2.53;;
80104;SDS011;69410;47.648;19.030;2023-04-25T00:36:26;2.30;;;2.30;;
80104;SDS011;69410;47.648;19.030;2023-04-25T00:36:57;2.90;;;2.90;;
80104;SDS011;69410;47.648;19.030;2023-04-25T00:37:28;2.77;;;2.77;;
80104;SDS011;69410;47.648;19.030;2023-04-25T00:37:58;2.80;;;2.80;;
80104;SDS011;69410;47.648;19.030;2023-04-25T00:38:29;2.60;;;2.60;;
80104;SDS011;69410;47.648;19.030;2023-04-25T00:39:00;2.73;;;2.73;;
80104;SDS011;69410;47.648;19.030;2023-04-25T00:39:31;3.07;;;3.07;;
80104;SDS011;69410;47.648;19.030;2023-04-25T00:40:02;3.03;;;3.03;;
80104;SDS011;69410;47.648;19.030;2023-04-25T00:40:35;2.73;;;2.73;;
80104;SDS011;69410;47.648;19.030;2023-04-25T00:41:06;2.53;;;2.53;;
80104;SDS011;69410;47.648;19.030;2023-04-25T00:41:37;2.83;;;2.83;;
80104;SDS011;69410;47.648;19.030;2023-04-25T00:42:09;2.67;;;2.67;;
80104;SDS011;69410;47.648;19.030;2023-04-25T00:42:40;2.23;;;2.23;;
80104;SDS011;69410;47.648;19.030;2023-04-25T00:43:12;2.50;;;2.50;;
80104;SDS011;69410;47.648;19.030;2023-04-25T00:43:42;2.57;;;2.57;;
80104;SDS011;69410;47.648;19.030;2023-04-25T00:44:15;2.90;;;2.90;;
80104;SDS011;69410;47.648;19.030;2023-04-25T00:44:46;2.80;;;2.80;;
80104;SDS011;69410;47.648;19.030;2023-04-25T00:45:18;2.37;;;2.37;;
80104;SDS011;69410;47.648;19.030;2023-04-25T00:45:49;2.80;;;2.80;;
80104;SDS011;69410;47.648;19.030;2023-04-25T00:46:22;2.93;;;2.93;;
80104;SDS011;69410;47.648;19.030;2023-04-25T00:46:53;2.63;;;2.63;;
80104;SDS011;69410;47.648;19.030;2023-04-25T00:47:25;2.73;;;2.73;;
80104;SDS011;69410;47.648;19.030;2023-04-25T00:47:58;2.63;;;2.63;;
80104;SDS011;69410;47.648;19.030;2023-04-25T00:48:28;2.80;;;2.80;;
80104;SDS011;69410;47.648;19.030;2023-04-25T00:48:59;2.93;;;2.93;;
80104;SDS011;69410;47.648;19.030;2023-04-25T00:49:30;3.07;;;3.07;;
80104;SDS011;69410;47.648;19.030;2023-04-25T00:50:01;3.13;;;3.13;;
80104;SDS011;69410;47.648;19.030;2023-04-25T00:50:32;3.27;;;3.27;;
80104;SDS011;69410;47.648;19.030;2023-04-25T00:51:04;3.00;;;3.00;;
80104;SDS011;69410;47.648;19.030;2023-04-25T00:51:35;2.87;;;2.87;;
80104;SDS011;69410;47.648;19.030;2023-04-25T00:52:06;2.87;;;2.87;;
80104;SDS011;69410;47.648;19.030;2023-04-25T00:52:37;3.30;;;3.30;;
80104;SDS011;69410;47.648;19.030;2023-04-25T00:53:10;3.63;;;3.63;;
80104;SDS011;69410;47.648;19.030;2023-04-25T00:53:41;3.00;;;3.00;;
80104;SDS011;69410;47.648;19.030;2023-04-25T00:54:12;3.00;;;3.00;;
80104;SDS011;69410;47.648;19.030;2023-04-25T00:54:44;3.23;;;3.23;;
80104;SDS011;69410;47.648;19.030;2023-04-25T00:55:15;3.23;;;3.23;;
80104;SDS011;69410;47.648;19.030;2023-04-25T00:55:46;3.80;;;3.80;;
80104;SDS011;69410;47.648;19.030;2023-04-25T00:56:17;3.80;;;3.80;;
80104;SDS011;69410;47.648;19.030;2023-04-25T00:56:48;3.53;;;3.53;;
80104;SDS011;69410;47.648;19.030;2023-04-25T00:57:19;3.73;;;3.73;;
80104;SDS011;69410;47.648;19.030;2023-04-25T00:57:49;3.47;;;3.47;;
80104;SDS011;69410;47.648;19.030;2023-04-25T00:58:21;3.90;;;3.90;;
80104;SDS011;69410;47.648;19.030;2023-04-25T00:58:52;3.90;;;3.90;;
80104;SDS011;69410;47.648;19.030;2023-04-25T00:59:24;3.77;;;3.77;;
80104;SDS011;69410;47.648;19.030;2023-04-25T00:59:55;3.83;;;3.83;;
80104;SDS011;69410;47.648;19.030;2023-04-25T01:00:26;3.83;;;3.83;;
80104;SDS011;69410;47.648;19.030;2023-04-25T01:00:57;3.77;;;3.77;;
80104;SDS011;69410;47.648;19.030;2023-04-25T01:01:28;3.93;;;3.93;;
80104;SDS011;69410;47.648;19.030;2023-04-25T01:02:00;4.13;;;4.13;;
80104;SDS011;69410;47.648;19.030;2023-04-25T01:02:32;3.53;;;3.53;;
80104;SDS011;69410;47.648;19.030;2023-04-25T01:03:04;3.90;;;3.90;;
80104;SDS011;69410;47.648;19.030;2023-04-25T01:03:35;4.13;;;4.13;;
80104;SDS011;69410;47.648;19.030;2023-04-25T01:04:08;4.27;;;4.27;;
80104;SDS011;69410;47.648;19.030;2023-04-25T01:04:39;4.13;;;4.13;;
80104;SDS011;69410;47.648;19.030;2023-04-25T01:05:10;4.03;;;4.03;;
80104;SDS011;69410;47.648;19.030;2023-04-25T01:05:41;4.00;;;4.00;;
80104;SDS011;69410;47.648;19.030;2023-04-25T01:06:12;4.00;;;4.00;;
80104;SDS011;69410;47.648;19.030;2023-04-25T01:06:43;4.00;;;4.00;;
80104;SDS011;69410;47.648;19.030;2023-04-25T01:07:14;4.03;;;4.03;;
80104;SDS011;69410;47.648;19.030;2023-04-25T01:07:45;3.67;;;3.67;;
80104;SDS011;69410;47.648;19.030;2023-04-25T01:08:16;4.03;;;4.03;;
80104;SDS011;69410;47.648;19.030;2023-04-25T01:08:47;4.00;;;4.00;;
80104;SDS011;69410;47.648;19.030;2023-04-25T01:09:17;3.73;;;3.73;;
80104;SDS011;69410;47.648;19.030;2023-04-25T01:09:49;4.03;;;4.03;;
80104;SDS011;69410;47.648;19.030;2023-04-25T01:10:22;4.13;;;4.13;;
80104;SDS011;69410;47.648;19.030;2023-04-25T01:10:53;3.80;;;3.80;;
80104;SDS011;69410;47.648;19.030;2023-04-25T01:11:24;4.20;;;4.20;;
80104;SDS011;69410;47.648;19.030;2023-04-25T01:11:54;4.17;;;4.17;;
80104;SDS011;69410;47.648;19.030;2023-04-25T01:12:25;4.10;;;4.10;;
80104;SDS011;69410;47.648;19.030;2023-04-25T01:12:56;3.83;;;3.83;;
80104;SDS011;69410;47.648;19.030;2023-04-25T01:13:27;4.60;;;4.60;;
80104;SDS011;69410;47.648;19.030;2023-04-25T01:13:58;4.87;;;4.87;;
80104;SDS011;69410;47.648;19.030;2023-04-25T01:14:29;4.67;;;4.67;;
80104;SDS011;69410;47.648;19.030;2023-04-25T01:14:59;4.07;;;4.07;;
80104;SDS011;69410;47.648;19.030;2023-04-25T01:15:30;4.30;;;4.30;;
80104;SDS011;69410;47.648;19.030;2023-04-25T01:16:01;4.33;;;4.33;;
80104;SDS011;69410;47.648;19.030;2023-04-25T01:16:33;4.20;;;4.20;;
80104;SDS011;69410;47.648;19.030;2023-04-25T01:17:04;4.57;;;4.57;;
80104;SDS011;69410;47.648;19.030;2023-04-25T01:17:36;4.40;;;4.40;;
80104;SDS011;69410;47.648;19.030;2023-04-25T01:18:07;4.43;;;4.43;;
80104;SDS011;69410;47.648;19.030;2023-04-25T01:18:38;4.07;;;4.07;;
80104;SDS011;69410;47.648;19.030;2023-04-25T01:19:10;4.20;;;4.20;;
80104;SDS011;69410;47.648;19.030;2023-04-25T01:19:41;4.13;;;4.13;;
80104;SDS011;69410;47.648;19.030;2023-04-25T01:20:12;4.50;;;4.50;;
80104;SDS011;69410;47.648;19.030;2023-04-25T01:20:44;4.23;;;4.23;;
80104;SDS011;69410;47.648;19.030;2023-04-25T01:21:18;4.77;;;4.77;;
80104;SDS011;69410;47.648;19.030;2023-04-25T01:21:49;4.63;;;4.63;;
80104;SDS011;69410;47.648;19.030;2023-04-25T01:22:20;4.37;;;4.37;;
80104;SDS011;69410;47.648;19.030;2023-04-25T01:22:51;4.30;;;4.30;;
80104;SDS011;69410;47.648;19.030;2023-04-25T01:23:23;4.47;;;4.47;;
80104;SDS011;69410;47.648;19.030;2023-04-25T01:23:54;4.23;;;4.23;;
80104;SDS011;69410;47.648;19.030;2023-04-25T01:24:25;4.70;;;4.70;;
80104;SDS011;69410;47.648;19.030;2023-04-25T01:24:56;4.50;;;4.50;;
80104;SDS011;69410;47.648;19.030;2023-04-25T01:25:27;4.63;;;4.63;;
80104;SDS011;69410;47.648;19.030;2023-04-25T01:25:59;4.50;;;4.50;;
80104;SDS011;69410;47.648;19.030;2023-04-25T01:26:31;4.47;;;4.47;;
80104;SDS011;69410;47.648;19.030;2023-04-25T01:27:03;4.43;;;4.43;;
80104;SDS011;69410;47.648;19.030;2023-04-25T01:27:35;4.63;;;4.63;;
80104;SDS011;69410;47.648;19.030;2023-04-25T01:28:06;4.83;;;4.83;;
80104;SDS011;69410;47.648;19.030;2023-04-25T01:28:38;4.70;;;4.70;;
80104;SDS011;69410;47.648;19.030;2023-04-25T01:29:10;4.80;;;4.80;;
80104;SDS011;69410;47.648;19.030;2023-04-25T01:29:41;4.50;;;4.50;;
80104;SDS011;69410;47.648;19.030;2023-04-25T01:30:12;4.77;;;4.77;;
80104;SDS011;69410;47.648;19.030;2023-04-25T01:30:43;4.67;;;4.67;;
80104;SDS011;69410;47.648;19.030;2023-04-25T01:31:15;4.43;;;4.43;;
80104;SDS011;69410;47.648;19.030;2023-04-25T01:31:47;4.87;;;4.87;;
80104;SDS011;69410;47.648;19.030;2023-04-25T01:32:17;4.00;;;4.00;;
80104;SDS011;69410;47.648;19.030;2023-04-25T01:32:48;4.70;;;4.70;;
80104;SDS011;69410;47.648;19.030;2023-04-25T01:33:20;4.93;;;4.93;;
80104;SDS011;69410;47.648;19.030;2023-04-25T01:33:51;5.20;;;5.20;;
80104;SDS011;69410;47.648;19.030;2023-04-25T01:34:22;4.67;;;4.67;;
80104;SDS011;69410;47.648;19.030;2023-04-25T01:34:53;4.73;;;4.73;;
80104;SDS011;69410;47.648;19.030;2023-04-25T01:35:24;5.00;;;5.00;;
80104;SDS011;69410;47.648;19.030;2023-04-25T01:35:56;5.20;;;5.20;;
80104;SDS011;69410;47.648;19.030;2023-04-25T01:36:28;5.20;;;5.20;;
80104;SDS011;69410;47.648;19.030;2023-04-25T01:36:59;5.90;;;5.90;;
80104;SDS011;69410;47.648;19.030;2023-04-25T01:37:31;4.97;;;4.97;;
80104;SDS011;69410;47.648;19.030;2023-04-25T01:38:01;5.47;;;5.47;;
80104;SDS011;69410;47.648;19.030;2023-04-25T01:38:32;5.40;;;5.40;;
80104;SDS011;69410;47.648;19.030;2023-04-25T01:39:03;5.23;;;5.23;;
80104;SDS011;69410;47.648;19.030;2023-04-25T01:39:34;4.77;;;4.77;;
80104;SDS011;69410;47.648;19.030;2023-04-25T01:40:06;4.90;;;4.90;;
80104;SDS011;69410;47.648;19.030;2023-04-25T01:40:38;5.20;;;5.20;;
80104;SDS011;69410;47.648;19.030;2023-04-25T01:41:10;5.23;;;5.23;;
80104;SDS011;69410;47.648;19.030;2023-04-25T01:41:41;5.03;;;5.03;;
80104;SDS011;69410;47.648;19.030;2023-04-25T01:42:12;5.07;;;5.07;;
80104;SDS011;69410;47.648;19.030;2023-04-25T01:42:43;4.47;;;4.47;;
80104;SDS011;69410;47.648;19.030;2023-04-25T01:43:15;5.23;;;5.23;;
80104;SDS011;69410;47.648;19.030;2023-04-25T01:43:46;5.70;;;5.70;;
80104;SDS011;69410;47.648;19.030;2023-04-25T01:44:17;5.70;;;5.70;;
80104;SDS011;69410;47.648;19.030;2023-04-25T01:44:48;5.33;;;5.33;;
80104;SDS011;69410;47.648;19.030;2023-04-25T01:45:18;5.20;;;5.20;;
80104;SDS011;69410;47.648;19.030;2023-04-25T01:45:49;5.63;;;5.63;;
80104;SDS011;69410;47.648;19.030;2023-04-25T01:46:20;5.13;;;5.13;;
80104;SDS011;69410;47.648;19.030;2023-04-25T01:46:51;5.17;;;5.17;;
80104;SDS011;69410;47.648;19.030;2023-04-25T01:47:23;5.10;;;5.10;;
80104;SDS011;69410;47.648;19.030;2023-04-25T01:47:54;4.73;;;4.73;;
80104;SDS011;69410;47.648;19.030;2023-04-25T01:48:25;5.00;;;5.00;;
80104;SDS011;69410;47.648;19.030;2023-04-25T01:48:55;5.10;;;5.10;;
80104;SDS011;69410;47.648;19.030;2023-04-25T01:49:26;4.77;;;4.77;;
80104;SDS011;69410;47.648;19.030;2023-04-25T01:49:57;4.63;;;4.63;;
80104;SDS011;69410;47.648;19.030;2023-04-25T01:50:29;4.77;;;4.77;;
80104;SDS011;69410;47.648;19.030;2023-04-25T01:51:02;5.27;;;5.27;;
80104;SDS011;69410;47.648;19.030;2023-04-25T01:51:35;5.20;;;5.20;;
80104;SDS011;69410;47.648;19.030;2023-04-25T01:52:06;5.50;;;5.50;;
80104;SDS011;69410;47.648;19.030;2023-04-25T01:52:37;4.80;;;4.80;;
80104;SDS011;69410;47.648;19.030;2023-04-25T01:53:08;5.00;;;5.00;;
80104;SDS011;69410;47.648;19.030;2023-04-25T01:53:40;5.20;;;5.20;;
80104;SDS011;69410;47.648;19.030;2023-04-25T01:54:11;4.87;;;4.87;;
80104;SDS011;69410;47.648;19.030;2023-04-25T01:54:43;5.47;;;5.47;;
80104;SDS011;69410;47.648;19.030;2023-04-25T01:55:14;5.27;;;5.27;;
80104;SDS011;69410;47.648;19.030;2023-04-25T01:55:45;5.13;;;5.13;;
80104;SDS011;69410;47.648;19.030;2023-04-25T01:56:15;4.80;;;4.80;;
80104;SDS011;69410;47.648;19.030;2023-04-25T01:56:49;5.37;;;5.37;;
80104;SDS011;69410;47.648;19.030;2023-04-25T01:57:20;4.93;;;4.93;;
80104;SDS011;69410;47.648;19.030;2023-04-25T01:57:51;4.70;;;4.70;;
80104;SDS011;69410;47.648;19.030;2023-04-25T01:58:22;4.63;;;4.63;;
80104;SDS011;69410;47.648;19.030;2023-04-25T01:58:53;4.87;;;4.87;;
80104;SDS011;69410;47.648;19.030;2023-04-25T01:59:27;5.13;;;5.13;;
80104;SDS011;69410;47.648;19.030;2023-04-25T01:59:59;4.93;;;4.93;;
80104;SDS011;69410;47.648;19.030;2023-04-25T02:00:31;4.70;;;4.70;;
80104;SDS011;69410;47.648;19.030;2023-04-25T02:01:02;4.80;;;4.80;;
80104;SDS011;69410;47.648;19.030;2023-04-25T02:01:33;5.20;;;5.20;;
80104;SDS011;69410;47.648;19.030;2023-04-25T02:02:04;4.70;;;4.70;;
80104;SDS011;69410;47.648;19.030;2023-04-25T02:02:35;4.67;;;4.67;;
80104;SDS011;69410;47.648;19.030;2023-04-25T02:03:06;4.33;;;4.33;;
80104;SDS011;69410;47.648;19.030;2023-04-25T02:03:37;4.63;;;4.63;;
80104;SDS011;69410;47.648;19.030;2023-04-25T02:04:08;4.23;;;4.23;;
80104;SDS011;69410;47.648;19.030;2023-04-25T02:04:39;4.87;;;4.87;;
80104;SDS011;69410;47.648;19.030;2023-04-25T02:05:10;5.07;;;5.07;;
80104;SDS011;69410;47.648;19.030;2023-04-25T02:05:40;5.03;;;5.03;;
80104;SDS011;69410;47.648;19.030;2023-04-25T02:06:11;5.00;;;5.00;;
80104;SDS011;69410;47.648;19.030;2023-04-25T02:06:43;5.00;;;5.00;;
80104;SDS011;69410;47.648;19.030;2023-04-25T02:07:15;5.10;;;5.10;;
80104;SDS011;69410;47.648;19.030;2023-04-25T02:07:47;5.10;;;5.10;;
80104;SDS011;69410;47.648;19.030;2023-04-25T02:08:18;5.17;;;5.17;;
80104;SDS011;69410;47.648;19.030;2023-04-25T02:08:49;5.10;;;5.10;;
80104;SDS011;69410;47.648;19.030;2023-04-25T02:09:20;5.03;;;5.03;;
80104;SDS011;69410;47.648;19.030;2023-04-25T02:09:51;4.63;;;4.63;;
80104;SDS011;69410;47.648;19.030;2023-04-25T02:10:21;4.80;;;4.80;;
80104;SDS011;69410;47.648;19.030;2023-04-25T02:10:52;5.30;;;5.30;;
80104;SDS011;69410;47.648;19.030;2023-04-25T02:11:23;5.27;;;5.27;;
80104;SDS011;69410;47.648;19.030;2023-04-25T02:11:54;4.93;;;4.93;;
80104;SDS011;69410;47.648;19.030;2023-04-25T02:12:26;5.17;;;5.17;;
80104;SDS011;69410;47.648;19.030;2023-04-25T02:12:58;5.47;;;5.47;;
80104;SDS011;69410;47.648;19.030;2023-04-25T02:13:28;5.60;;;5.60;;
80104;SDS011;69410;47.648;19.030;2023-04-25T02:13:59;5.33;;;5.33;;
80104;SDS011;69410;47.648;19.030;2023-04-25T02:14:30;5.27;;;5.27;;
80104;SDS011;69410;47.648;19.030;2023-04-25T02:15:01;5.73;;;5.73;;
80104;SDS011;69410;47.648;19.030;2023-04-25T02:15:31;5.43;;;5.43;;
80104;SDS011;69410;47.648;19.030;2023-04-25T02:16:02;5.13;;;5.13;;
80104;SDS011;69410;47.648;19.030;2023-04-25T02:16:33;5.03;;;5.03;;
80104;SDS011;69410;47.648;19.030;2023-04-25T02:17:04;4.93;;;4.93;;
80104;SDS011;69410;47.648;19.030;2023-04-25T02:17:35;5.50;;;5.50;;
80104;SDS011;69410;47.648;19.030;2023-04-25T02:18:05;5.23;;;5.23;;
80104;SDS011;69410;47.648;19.030;2023-04-25T02:18:37;5.17;;;5.17;;
80104;SDS011;69410;47.648;19.030;2023-04-25T02:19:11;4.93;;;4.93;;
80104;SDS011;69410;47.648;19.030;2023-04-25T02:19:43;5.27;;;5.27;;
80104;SDS011;69410;47.648;19.030;2023-04-25T02:20:17;5.33;;;5.33;;
80104;SDS011;69410;47.648;19.030;2023-04-25T02:20:48;5.17;;;5.17;;
80104;SDS011;69410;47.648;19.030;2023-04-25T02:21:19;5.20;;;5.20;;
80104;SDS011;69410;47.648;19.030;2023-04-25T02:21:51;5.20;;;5.20;;
80104;SDS011;69410;47.648;19.030;2023-04-25T02:22:22;4.90;;;4.90;;
80104;SDS011;69410;47.648;19.030;2023-04-25T02:22:52;5.47;;;5.47;;
80104;SDS011;69410;47.648;19.030;2023-04-25T02:23:23;5.63;;;5.63;;
80104;SDS011;69410;47.648;19.030;2023-04-25T02:23:54;5.53;;;5.53;;
80104;SDS011;69410;47.648;19.030;2023-04-25T02:24:25;5.03;;;5.03;;
80104;SDS011;69410;47.648;19.030;2023-04-25T02:24:55;5.37;;;5.37;;
80104;SDS011;69410;47.648;19.030;2023-04-25T02:25:26;4.60;;;4.60;;
80104;SDS011;69410;47.648;19.030;2023-04-25T02:25:57;4.53;;;4.53;;
80104;SDS011;69410;47.648;19.030;2023-04-25T02:26:28;5.13;;;5.13;;
80104;SDS011;69410;47.648;19.030;2023-04-25T02:26:59;5.23;;;5.23;;
80104;SDS011;69410;47.648;19.030;2023-04-25T02:27:30;4.50;;;4.50;;
80104;SDS011;69410;47.648;19.030;2023-04-25T02:28:01;4.67;;;4.67;;
80104;SDS011;69410;47.648;19.030;2023-04-25T02:28:32;4.67;;;4.67;;
80104;SDS011;69410;47.648;19.030;2023-04-25T02:29:02;4.80;;;4.80;;
80104;SDS011;69410;47.648;19.030;2023-04-25T02:29:33;5.03;;;5.03;;
80104;SDS011;69410;47.648;19.030;2023-04-25T02:30:05;4.77;;;4.77;;
80104;SDS011;69410;47.648;19.030;2023-04-25T02:30:36;4.47;;;4.47;;
80104;SDS011;69410;47.648;19.030;2023-04-25T02:31:07;4.23;;;4.23;;
80104;SDS011;69410;47.648;19.030;2023-04-25T02:31:38;4.53;;;4.53;;
80104;SDS011;69410;47.648;19.030;2023-04-25T02:32:09;4.60;;;4.60;;
80104;SDS011;69410;47.648;19.030;2023-04-25T02:32:39;4.40;;;4.40;;
80104;SDS011;69410;47.648;19.030;2023-04-25T02:33:10;4.17;;;4.17;;
80104;SDS011;69410;47.648;19.030;2023-04-25T02:33:41;4.13;;;4.13;;
80104;SDS011;69410;47.648;19.030;2023-04-25T02:34:13;4.20;;;4.20;;
80104;SDS011;69410;47.648;19.030;2023-04-25T02:34:43;4.33;;;4.33;;
80104;SDS011;69410;47.648;19.030;2023-04-25T02:35:14;4.03;;;4.03;;
80104;SDS011;69410;47.648;19.030;2023-04-25T02:35:45;4.07;;;4.07;;
80104;SDS011;69410;47.648;19.030;2023-04-25T02:36:16;4.00;;;4.00;;
80104;SDS011;69410;47.648;19.030;2023-04-25T02:36:47;4.30;;;4.30;;
80104;SDS011;69410;47.648;19.030;2023-04-25T02:37:20;4.33;;;4.33;;
80104;SDS011;69410;47.648;19.030;2023-04-25T02:37:51;3.83;;;3.83;;
80104;SDS011;69410;47.648;19.030;2023-04-25T02:38:25;4.00;;;4.00;;
80104;SDS011;69410;47.648;19.030;2023-04-25T02:38:56;3.27;;;3.27;;
80104;SDS011;69410;47.648;19.030;2023-04-25T02:39:27;3.23;;;3.23;;
80104;SDS011;69410;47.648;19.030;2023-04-25T02:39:58;3.63;;;3.63;;
80104;SDS011;69410;47.648;19.030;2023-04-25T02:40:29;3.73;;;3.73;;
80104;SDS011;69410;47.648;19.030;2023-04-25T02:41:00;4.07;;;4.07;;
80104;SDS011;69410;47.648;19.030;2023-04-25T02:41:31;4.27;;;4.27;;
80104;SDS011;69410;47.648;19.030;2023-04-25T02:42:01;3.97;;;3.97;;
80104;SDS011;69410;47.648;19.030;2023-04-25T02:42:32;3.83;;;3.83;;
80104;SDS011;69410;47.648;19.030;2023-04-25T02:43:03;3.87;;;3.87;;
80104;SDS011;69410;47.648;19.030;2023-04-25T02:43:34;4.17;;;4.17;;
80104;SDS011;69410;47.648;19.030;2023-04-25T02:44:04;4.40;;;4.40;;
80104;SDS011;69410;47.648;19.030;2023-04-25T02:44:35;4.67;;;4.67;;
80104;SDS011;69410;47.648;19.030;2023-04-25T02:45:06;4.27;;;4.27;;
80104;SDS011;69410;47.648;19.030;2023-04-25T02:45:38;4.13;;;4.13;;
80104;SDS011;69410;47.648;19.030;2023-04-25T02:46:11;4.13;;;4.13;;
80104;SDS011;69410;47.648;19.030;2023-04-25T02:46:44;4.07;;;4.07;;
80104;SDS011;69410;47.648;19.030;2023-04-25T02:47:18;3.80;;;3.80;;
80104;SDS011;69410;47.648;19.030;2023-04-25T02:47:49;3.80;;;3.80;;
80104;SDS011;69410;47.648;19.030;2023-04-25T02:48:20;3.97;;;3.97;;
80104;SDS011;69410;47.648;19.030;2023-04-25T02:48:51;3.83;;;3.83;;
80104;SDS011;69410;47.648;19.030;2023-04-25T02:49:25;4.00;;;4.00;;
80104;SDS011;69410;47.648;19.030;2023-04-25T02:49:59;4.17;;;4.17;;
80104;SDS011;69410;47.648;19.030;2023-04-25T02:50:42;4.30;;;4.30;;
80104;SDS011;69410;47.648;19.030;2023-04-25T02:52:01;4.03;;;4.03;;
80104;SDS011;69410;47.648;19.030;2023-04-25T02:52:33;3.97;;;3.97;;
80104;SDS011;69410;47.648;19.030;2023-04-25T02:53:03;3.90;;;3.90;;
80104;SDS011;69410;47.648;19.030;2023-04-25T02:53:34;4.17;;;4.17;;
80104;SDS011;69410;47.648;19.030;2023-04-25T02:54:05;4.00;;;4.00;;
80104;SDS011;69410;47.648;19.030;2023-04-25T02:54:35;4.10;;;4.10;;
80104;SDS011;69410;47.648;19.030;2023-04-25T02:55:06;3.77;;;3.77;;
80104;SDS011;69410;47.648;19.030;2023-04-25T02:55:38;4.10;;;4.10;;
80104;SDS011;69410;47.648;19.030;2023-04-25T02:56:08;4.03;;;4.03;;
80104;SDS011;69410;47.648;19.030;2023-04-25T02:56:39;4.07;;;4.07;;
80104;SDS011;69410;47.648;19.030;2023-04-25T02:57:10;4.63;;;4.63;;
80104;SDS011;69410;47.648;19.030;2023-04-25T02:57:41;5.03;;;5.03;;
80104;SDS011;69410;47.648;19.030;2023-04-25T02:58:12;4.97;;;4.97;;
80104;SDS011;69410;47.648;19.030;2023-04-25T02:58:43;4.67;;;4.67;;
80104;SDS011;69410;47.648;19.030;2023-04-25T02:59:13;4.73;;;4.73;;
80104;SDS011;69410;47.648;19.030;2023-04-25T02:59:44;4.67;;;4.67;;
80104;SDS011;69410;47.648;19.030;2023-04-25T03:00:15;5.17;;;5.17;;
80104;SDS011;69410;47.648;19.030;2023-04-25T03:00:46;5.43;;;5.43;;
80104;SDS011;69410;47.648;19.030;2023-04-25T03:01:16;4.93;;;4.93;;
80104;SDS011;69410;47.648;19.030;2023-04-25T03:01:47;4.93;;;4.93;;
80104;SDS011;69410;47.648;19.030;2023-04-25T03:02:22;5.17;;;5.17;;
80104;SDS011;69410;47.648;19.030;2023-04-25T03:02:53;5.23;;;5.23;;
80104;SDS011;69410;47.648;19.030;2023-04-25T03:03:24;4.63;;;4.63;;
80104;SDS011;69410;47.648;19.030;2023-04-25T03:03:55;4.77;;;4.77;;
80104;SDS011;69410;47.648;19.030;2023-04-25T03:04:25;5.30;;;5.30;;
80104;SDS011;69410;47.648;19.030;2023-04-25T03:04:56;5.13;;;5.13;;
80104;SDS011;69410;47.648;19.030;2023-04-25T03:05:27;5.23;;;5.23;;
80104;SDS011;69410;47.648;19.030;2023-04-25T03:06:03;5.63;;;5.63;;